Time;durP1;ratioP1;P1;durP2;ratioP2;P2;SDS_P1;SDS_P2;PMS_P1;PMS_P2;Temp;Humidity;BMP_temperature;BMP_pressure;BME280_temperature;BME280_humidity;BME280_pressure;Samples;Min_cycle;Max_cycle;Signal;HPM_P1;HPM_P2
2024/01/31 00:00:08;;;;;;;14.30;10.17;;;;;;;7.37;100.00;99687.94;5113655;28;20203;-73
2024/01/31 00:02:35;;;;;;;14.50;10.63;;;;;;;7.38;100.00;99694.91;5113776;28;20231;-73
2024/01/31 00:05:01;;;;;;;17.23;10.43;;;;;;;7.35;100.00;99703.97;5113418;28;20205;-73
2024/01/31 00:07:27;;;;;;;18.23;11.27;;;;;;;7.33;100.00;99697.19;5113678;28;20211;-73
2024/01/31 00:09:54;;;;;;;16.23;10.37;;;;;;;7.31;100.00;99696.50;5113388;28;20203;-73
2024/01/31 00:12:20;;;;;;;14.00;9.80;;;;;;;7.28;100.00;99700.28;5113250;28;20232;-73
2024/01/31 00:14:46;;;;;;;15.27;10.80;;;;;;;7.35;100.00;99700.50;5113335;28;20566;-73
2024/01/31 00:17:13;;;;;;;21.83;10.97;;;;;;;7.41;100.00;99695.41;5113630;28;20203;-73
2024/01/31 00:19:39;;;;;;;18.63;11.00;;;;;;;7.40;100.00;99682.31;5113615;28;20203;-73
2024/01/31 00:22:06;;;;;;;19.03;10.67;;;;;;;7.34;100.00;99685.63;5113456;28;20207;-73
2024/01/31 00:24:32;;;;;;;17.73;11.37;;;;;;;7.36;100.00;99694.19;5113117;28;20215;-73
2024/01/31 00:26:58;;;;;;;18.37;10.20;;;;;;;7.34;100.00;99691.72;5113530;28;20207;-73
2024/01/31 00:29:25;;;;;;;16.53;9.90;;;;;;;7.38;100.00;99690.41;5116434;28;20207;-73
2024/01/31 00:31:51;;;;;;;19.47;11.30;;;;;;;7.33;100.00;99687.41;5117092;28;20227;-73
2024/01/31 00:34:17;;;;;;;19.33;10.77;;;;;;;7.35;100.00;99693.41;5117241;28;20229;-73
2024/01/31 00:36:44;;;;;;;22.67;11.67;;;;;;;7.36;100.00;99686.25;5117166;28;20210;-73
2024/01/31 00:39:10;;;;;;;15.70;10.93;;;;;;;7.35;100.00;99687.25;5117099;28;20203;-72
2024/01/31 00:41:37;;;;;;;19.03;11.10;;;;;;;7.35;100.00;99690.75;5117088;28;20202;-73
2024/01/31 00:44:03;;;;;;;19.47;11.37;;;;;;;7.32;100.00;99691.06;5116765;28;20710;-73
2024/01/31 00:46:29;;;;;;;16.70;10.30;;;;;;;7.34;100.00;99694.34;5117048;28;20199;-73
2024/01/31 00:48:56;;;;;;;18.30;10.87;;;;;;;7.29;100.00;99693.19;5116961;28;20216;-73
2024/01/31 00:51:22;;;;;;;17.63;10.87;;;;;;;7.26;100.00;99696.16;5116531;28;20230;-73
2024/01/31 00:53:49;;;;;;;16.27;10.63;;;;;;;7.30;100.00;99693.03;5116500;28;20728;-73
2024/01/31 00:56:15;;;;;;;20.03;10.60;;;;;;;7.31;100.00;99689.41;5116847;28;20206;-73
2024/01/31 00:58:41;;;;;;;14.87;9.97;;;;;;;7.33;100.00;99691.91;5116787;28;20229;-73
2024/01/31 01:01:08;;;;;;;17.80;10.80;;;;;;;7.31;100.00;99693.84;5116769;28;20205;-73
2024/01/31 01:03:34;;;;;;;17.97;10.63;;;;;;;7.28;100.00;99699.47;5116671;28;20226;-73
2024/01/31 01:06:00;;;;;;;19.43;10.37;;;;;;;7.26;100.00;99691.69;5116695;28;20203;-73
2024/01/31 01:08:27;;;;;;;17.13;11.20;;;;;;;7.33;100.00;99694.53;5117107;28;20207;-73
2024/01/31 01:10:55;;;;;;;15.40;9.70;;;;;;;7.34;100.00;99693.53;5116497;28;20234;-73
2024/01/31 01:13:21;;;;;;;17.23;11.43;;;;;;;7.36;100.00;99688.91;5117164;28;20223;-73
2024/01/31 01:15:48;;;;;;;17.60;10.77;;;;;;;7.32;100.00;99690.22;5116140;28;20207;-73
2024/01/31 01:18:14;;;;;;;19.80;12.00;;;;;;;7.36;100.00;99696.84;5116110;28;20657;-73
2024/01/31 01:20:40;;;;;;;23.63;11.83;;;;;;;7.32;100.00;99698.16;5116329;28;20568;-73
2024/01/31 01:23:07;;;;;;;20.13;11.37;;;;;;;7.33;100.00;99691.91;5115883;28;20733;-73
2024/01/31 01:25:34;;;;;;;17.17;11.23;;;;;;;7.30;100.00;99708.91;5115800;28;20211;-73
2024/01/31 01:28:00;;;;;;;20.07;11.90;;;;;;;7.31;100.00;99700.00;5116189;28;20206;-73
2024/01/31 01:30:27;;;;;;;19.07;11.63;;;;;;;7.26;100.00;99698.78;5115831;28;20707;-73
2024/01/31 01:32:54;;;;;;;21.33;11.83;;;;;;;7.31;100.00;99700.00;5115701;28;20698;-73
2024/01/31 01:35:20;;;;;;;19.93;11.00;;;;;;;7.31;100.00;99700.00;5116068;28;20210;-73
2024/01/31 01:37:45;;;;;;;21.73;11.33;;;;;;;7.32;100.00;99703.44;5116010;28;20219;-73
2024/01/31 01:40:12;;;;;;;15.13;10.23;;;;;;;7.22;100.00;99694.81;5115391;28;20289;-73
2024/01/31 01:42:41;;;;;;;19.60;11.33;;;;;;;7.29;100.00;99706.44;5115505;28;20227;-73
2024/01/31 01:45:08;;;;;;;17.73;11.03;;;;;;;7.25;100.00;99695.34;5115844;28;20203;-73
2024/01/31 01:47:36;;;;;;;17.10;11.30;;;;;;;7.26;100.00;99702.28;5115546;28;20683;-73
2024/01/31 01:50:03;;;;;;;18.37;11.50;;;;;;;7.24;100.00;99692.84;5115709;28;20225;-73
2024/01/31 01:52:32;;;;;;;15.20;11.00;;;;;;;7.27;100.00;99692.50;5115553;28;20235;-73
2024/01/31 01:55:02;;;;;;;20.43;12.00;;;;;;;7.23;100.00;99688.53;5116311;27;20206;-73
2024/01/31 01:57:29;;;;;;;15.97;11.33;;;;;;;7.20;100.00;99688.84;5115692;28;20287;-73
2024/01/31 01:59:56;;;;;;;22.13;11.30;;;;;;;7.25;100.00;99695.34;5115474;28;20688;-73
2024/01/31 02:02:22;;;;;;;17.83;11.93;;;;;;;7.23;100.00;99685.88;5115525;28;20215;-73
2024/01/31 02:04:49;;;;;;;17.77;11.90;;;;;;;7.20;100.00;99691.50;5115455;28;20203;-73
2024/01/31 02:07:15;;;;;;;18.60;12.23;;;;;;;7.19;100.00;99695.13;5115134;28;20199;-73
2024/01/31 02:09:42;;;;;;;18.87;11.67;;;;;;;7.17;100.00;99681.22;5115523;28;20203;-73
2024/01/31 02:12:10;;;;;;;17.97;11.47;;;;;;;7.14;100.00;99678.88;5114951;28;20562;-73
2024/01/31 02:14:37;;;;;;;17.00;11.13;;;;;;;7.13;100.00;99678.06;5115055;28;20199;-73
2024/01/31 02:17:04;;;;;;;14.20;10.60;;;;;;;7.14;100.00;99673.59;5115298;28;20207;-73
2024/01/31 02:19:30;;;;;;;19.90;11.57;;;;;;;7.16;100.00;99663.72;5115250;28;20210;-73
2024/01/31 02:22:03;;;;;;;16.17;11.73;;;;;;;7.20;100.00;99670.34;5115059;28;20282;-73
2024/01/31 02:24:29;;;;;;;18.97;11.40;;;;;;;7.24;100.00;99667.19;5114898;28;20213;-73
2024/01/31 02:26:55;;;;;;;15.23;10.60;;;;;;;7.28;100.00;99671.19;5115100;28;20220;-73
2024/01/31 02:29:22;;;;;;;15.97;10.70;;;;;;;7.24;100.00;99659.25;5115033;28;20208;-73
2024/01/31 02:31:48;;;;;;;17.13;11.43;;;;;;;7.28;100.00;99662.44;5114930;28;20234;-73
2024/01/31 02:34:15;;;;;;;18.23;11.30;;;;;;;7.26;100.00;99661.75;5114640;28;20233;-73
2024/01/31 02:36:41;;;;;;;15.13;11.03;;;;;;;7.26;100.00;99657.31;5114889;28;20199;-73
2024/01/31 02:39:07;;;;;;;14.63;10.13;;;;;;;7.28;100.00;99659.81;5114813;28;20312;-73
2024/01/31 02:41:34;;;;;;;16.10;10.00;;;;;;;7.30;100.00;99657.81;5114795;28;20579;-73
2024/01/31 02:44:00;;;;;;;13.87;10.20;;;;;;;7.27;100.00;99658.13;5114683;28;20224;-73
2024/01/31 02:46:26;;;;;;;14.20;9.73;;;;;;;7.21;100.00;99656.97;5114744;28;20210;-73
2024/01/31 02:48:53;;;;;;;11.93;9.30;;;;;;;7.20;100.00;99657.13;5114649;28;20207;-73
2024/01/31 02:51:19;;;;;;;14.37;9.87;;;;;;;7.25;100.00;99662.75;5113953;28;20234;-73
2024/01/31 02:53:45;;;;;;;15.00;9.20;;;;;;;7.21;100.00;99661.41;5114537;28;20222;-73
2024/01/31 02:56:12;;;;;;;12.97;9.40;;;;;;;7.25;100.00;99657.47;5114551;28;20290;-73
2024/01/31 02:58:38;;;;;;;13.17;9.33;;;;;;;7.20;100.00;99660.56;5114511;28;20207;-73
2024/01/31 03:01:08;;;;;;;19.07;10.13;;;;;;;7.23;100.00;99654.13;5114461;28;20203;-73
2024/01/31 03:03:34;;;;;;;13.60;9.73;;;;;;;7.24;100.00;99655.81;5114408;28;20223;-73
2024/01/31 03:06:00;;;;;;;12.63;9.37;;;;;;;7.26;100.00;99659.13;5114380;28;20219;-73
2024/01/31 03:08:27;;;;;;;12.07;9.60;;;;;;;7.27;100.00;99663.41;5114365;28;20201;-73
2024/01/31 03:10:53;;;;;;;14.70;9.73;;;;;;;7.25;100.00;99660.09;5114347;28;20264;-73
2024/01/31 03:13:19;;;;;;;14.10;10.23;;;;;;;7.25;100.00;99660.09;5114097;28;20229;-73
2024/01/31 03:15:46;;;;;;;13.50;9.43;;;;;;;7.27;100.00;99663.41;5114287;28;20203;-73
2024/01/31 03:18:12;;;;;;;12.13;9.67;;;;;;;7.26;100.00;99659.97;5114202;28;20203;-73
2024/01/31 03:20:38;;;;;;;13.80;9.20;;;;;;;7.26;100.00;99649.38;5114186;28;20233;-73
2024/01/31 03:23:05;;;;;;;13.50;9.40;;;;;;;7.26;100.00;99645.88;5114554;28;20746;-72
2024/01/31 03:25:31;;;;;;;14.67;9.33;;;;;;;7.27;100.00;99650.19;5113805;28;20669;-72
2024/01/31 03:27:57;;;;;;;14.00;9.33;;;;;;;7.29;100.00;99642.94;5114090;28;20203;-72
2024/01/31 03:30:24;;;;;;;17.70;10.23;;;;;;;7.29;100.00;99653.50;5113622;28;20662;-72
2024/01/31 03:32:50;;;;;;;13.50;9.30;;;;;;;7.23;100.00;99646.19;5113629;28;20234;-72
2024/01/31 03:35:17;;;;;;;12.33;9.80;;;;;;;7.21;100.00;99651.66;5113733;28;20203;-72
2024/01/31 03:37:45;;;;;;;13.50;9.73;;;;;;;7.26;100.00;99646.72;5113832;28;20209;-72
2024/01/31 03:40:11;;;;;;;13.47;9.83;;;;;;;7.27;100.00;99644.88;5113921;28;20199;-72
2024/01/31 03:42:38;;;;;;;12.50;9.63;;;;;;;7.22;100.00;99644.53;5113782;28;20223;-72
2024/01/31 03:45:05;;;;;;;14.13;9.50;;;;;;;7.16;100.00;99650.47;5113511;28;20673;-72
2024/01/31 03:47:34;;;;;;;14.53;9.30;;;;;;;7.18;100.00;99651.13;5113482;28;20757;-72
2024/01/31 03:50:00;;;;;;;14.00;9.77;;;;;;;7.14;100.00;99655.09;5113449;28;20654;-72
2024/01/31 03:52:26;;;;;;;14.73;10.40;;;;;;;7.11;100.00;99653.59;5113691;28;20227;-72
2024/01/31 03:54:53;;;;;;;13.27;9.43;;;;;;;7.12;100.00;99651.78;5113857;28;20209;-72
2024/01/31 03:57:19;;;;;;;13.27;9.23;;;;;;;7.12;100.00;99655.28;5113788;28;20225;-72
2024/01/31 03:59:45;;;;;;;13.23;9.50;;;;;;;7.14;100.00;99649.78;5113761;28;20199;-72
2024/01/31 04:02:12;;;;;;;15.37;10.00;;;;;;;7.15;100.00;99648.81;5114756;28;20215;-72
2024/01/31 04:04:38;;;;;;;13.77;10.00;;;;;;;7.14;100.00;99649.78;5117592;28;20207;-72
2024/01/31 04:07:05;;;;;;;13.43;9.67;;;;;;;7.17;100.00;99649.50;5117608;28;20200;-72
2024/01/31 04:09:31;;;;;;;12.00;9.37;;;;;;;7.18;100.00;99656.44;5117204;28;20203;-72
2024/01/31 04:11:58;;;;;;;14.63;9.67;;;;;;;7.21;100.00;99650.81;5116992;28;20690;-72
2024/01/31 04:14:25;;;;;;;11.73;9.30;;;;;;;7.24;100.00;99648.69;5117114;28;20199;-72
2024/01/31 04:16:51;;;;;;;11.67;9.70;;;;;;;7.23;100.00;99651.47;5117254;28;20210;-72
2024/01/31 04:19:18;;;;;;;13.90;9.63;;;;;;;7.23;100.00;99654.13;5116767;28;20203;-72
2024/01/31 04:21:44;;;;;;;11.90;9.30;;;;;;;7.19;100.00;99644.88;5117453;28;20200;-72
2024/01/31 04:24:11;;;;;;;14.10;9.60;;;;;;;7.19;100.00;99647.53;5117199;28;20238;-72
2024/01/31 04:26:44;;;;;;;11.53;8.97;;;;;;;7.18;100.00;99646.69;5117329;28;20188;-72
2024/01/31 04:29:11;;;;;;;14.50;9.83;;;;;;;7.17;100.00;99655.63;5117325;28;20204;-72
2024/01/31 04:31:37;;;;;;;11.67;9.77;;;;;;;7.16;100.00;99659.25;5116999;28;20210;-72
2024/01/31 04:34:04;;;;;;;11.47;9.40;;;;;;;7.17;100.00;99657.41;5116690;28;20309;-72
2024/01/31 04:36:31;;;;;;;12.83;9.73;;;;;;;7.16;100.00;99658.41;5117066;28;20242;-72
2024/01/31 04:38:58;;;;;;;10.50;8.87;;;;;;;7.15;100.00;99654.13;5116909;28;20199;-72
2024/01/31 04:41:24;;;;;;;11.70;9.30;;;;;;;7.16;100.00;99663.72;5116881;28;20210;-72
2024/01/31 04:43:51;;;;;;;14.67;9.63;;;;;;;7.16;100.00;99661.06;5116700;28;20223;-72
2024/01/31 04:46:17;;;;;;;13.93;9.30;;;;;;;7.17;100.00;99662.72;5116842;28;20203;-72
2024/01/31 04:48:43;;;;;;;15.33;9.30;;;;;;;7.16;100.00;99661.91;5117650;28;20207;-72
2024/01/31 04:51:10;;;;;;;14.90;10.63;;;;;;;7.18;100.00;99674.94;5116591;28;20202;-72
2024/01/31 04:53:36;;;;;;;13.50;9.53;;;;;;;7.16;100.00;99675.13;5116713;28;20237;-72
2024/01/31 04:56:06;;;;;;;15.37;10.00;;;;;;;7.22;100.00;99679.78;5116682;28;20207;-72
2024/01/31 04:58:33;;;;;;;13.50;9.80;;;;;;;7.17;100.00;99686.50;5116563;28;20187;-72
2024/01/31 05:00:59;;;;;;;11.93;8.83;;;;;;;7.19;100.00;99689.84;5116477;28;20203;-72
2024/01/31 05:03:27;;;;;;;13.07;9.97;;;;;;;7.11;100.00;99684.50;5116429;28;20220;-72
2024/01/31 05:05:53;;;;;;;13.00;9.33;;;;;;;7.12;100.00;99689.66;5116519;28;20237;-72
2024/01/31 05:08:20;;;;;;;14.60;9.33;;;;;;;7.09;100.00;99689.13;5116412;28;20203;-72
2024/01/31 05:10:46;;;;;;;15.27;9.70;;;;;;;7.12;100.00;99694.09;5116361;28;20225;-72
2024/01/31 05:13:13;;;;;;;15.87;9.97;;;;;;;7.11;100.00;99690.63;5116469;28;20227;-73
2024/01/31 05:15:40;;;;;;;12.53;9.33;;;;;;;7.15;100.00;99694.59;5115860;28;20203;-73
2024/01/31 05:18:06;;;;;;;12.17;9.53;;;;;;;7.23;100.00;99691.16;5115991;28;20199;-73
2024/01/31 05:20:32;;;;;;;13.40;9.93;;;;;;;7.21;100.00;99701.94;5115925;28;20203;-73
2024/01/31 05:22:59;;;;;;;13.00;9.27;;;;;;;7.15;100.00;99707.81;5115556;28;20223;-73
2024/01/31 05:25:25;;;;;;;12.73;9.20;;;;;;;7.19;100.00;99708.38;5115156;28;20211;-73
2024/01/31 05:27:52;;;;;;;13.43;9.57;;;;;;;7.19;100.00;99714.47;5115426;28;20670;-73
2024/01/31 05:30:18;;;;;;;15.20;9.03;;;;;;;7.17;100.00;99715.59;5116121;28;20755;-73
2024/01/31 05:32:45;;;;;;;14.40;9.87;;;;;;;7.21;100.00;99709.03;5115918;28;20231;-73
2024/01/31 05:35:11;;;;;;;17.30;10.00;;;;;;;7.16;100.00;99711.31;5115542;28;20203;-73
2024/01/31 05:37:38;;;;;;;14.50;9.40;;;;;;;7.16;100.00;99721.91;5115454;28;20566;-73
2024/01/31 05:40:05;;;;;;;18.43;10.57;;;;;;;7.18;100.00;99723.41;5115764;28;20209;-73
2024/01/31 05:42:31;;;;;;;13.37;9.00;;;;;;;7.18;100.00;99725.19;5115357;28;20219;-73
2024/01/31 05:44:57;;;;;;;15.73;9.40;;;;;;;7.20;100.00;99717.94;5115482;28;20200;-73
2024/01/31 05:47:24;;;;;;;13.57;9.33;;;;;;;7.21;100.00;99711.66;5115747;28;20204;-73
2024/01/31 05:49:50;;;;;;;14.87;9.70;;;;;;;7.17;100.00;99712.97;5115452;28;20203;-73
2024/01/31 05:52:17;;;;;;;16.33;9.43;;;;;;;7.15;100.00;99714.94;5114905;28;20701;-73
2024/01/31 05:54:43;;;;;;;14.43;9.70;;;;;;;7.15;100.00;99712.31;5115882;28;20229;-73
2024/01/31 05:57:09;;;;;;;14.97;9.87;;;;;;;7.06;100.00;99715.91;5116070;28;20211;-73
2024/01/31 05:59:40;;;;;;;13.10;9.40;;;;;;;7.05;100.00;99711.56;5115488;28;20200;-73
2024/01/31 06:02:06;;;;;;;14.00;9.93;;;;;;;7.07;100.00;99712.25;5115250;28;20195;-73
2024/01/31 06:04:33;;;;;;;14.70;9.70;;;;;;;7.06;100.00;99710.59;5114992;28;20199;-73
2024/01/31 06:06:59;;;;;;;12.03;9.23;;;;;;;7.07;100.00;99706.97;5114681;28;20297;-73
2024/01/31 06:09:26;;;;;;;19.80;10.23;;;;;;;7.06;100.00;99710.59;5114926;28;20210;-73
2024/01/31 06:11:52;;;;;;;15.90;9.70;;;;;;;7.12;100.00;99713.44;5114753;28;20201;-73
2024/01/31 06:14:19;;;;;;;13.40;9.20;;;;;;;7.23;100.00;99725.56;5114522;28;20579;-73
2024/01/31 06:16:45;;;;;;;14.00;8.83;;;;;;;7.26;100.00;99717.31;5114581;28;20203;-73
2024/01/31 06:19:11;;;;;;;11.97;8.90;;;;;;;7.44;100.00;99721.56;5114534;28;20208;-73
2024/01/31 06:21:38;;;;;;;10.07;8.17;;;;;;;7.62;100.00;99730.22;5114694;28;20546;-72
2024/01/31 06:24:04;;;;;;;9.53;7.80;;;;;;;7.49;100.00;99729.84;5114091;28;20729;-72
2024/01/31 06:26:32;;;;;;;11.57;8.47;;;;;;;7.33;100.00;99721.00;5113497;28;20193;-72
2024/01/31 06:28:59;;;;;;;11.07;8.83;;;;;;;7.26;100.00;99719.97;5114210;28;20214;-72
2024/01/31 06:31:28;;;;;;;12.27;8.93;;;;;;;7.20;100.00;99725.88;5114573;28;20207;-72
2024/01/31 06:33:54;;;;;;;10.90;8.60;;;;;;;7.17;100.00;99729.69;5114311;28;20223;-73
2024/01/31 06:36:21;;;;;;;11.13;8.60;;;;;;;7.18;100.00;99720.75;5113960;28;20670;-73
2024/01/31 06:38:48;;;;;;;13.67;8.57;;;;;;;7.17;100.00;99732.31;5114017;27;20582;-73
2024/01/31 06:41:18;;;;;;;13.33;9.10;;;;;;;7.23;100.00;99725.56;5114281;28;20225;-72
2024/01/31 06:43:44;;;;;;;12.77;8.67;;;;;;;7.21;100.00;99735.47;5114284;28;20219;-72
2024/01/31 06:46:11;;;;;;;10.30;8.90;;;;;;;7.14;100.00;99732.63;5114288;28;20203;-72
2024/01/31 06:48:37;;;;;;;12.27;9.17;;;;;;;7.17;100.00;99734.13;5113981;28;20239;-72
2024/01/31 06:51:06;;;;;;;12.20;9.20;;;;;;;7.15;100.00;99736.91;5114012;28;20552;-72
2024/01/31 06:53:32;;;;;;;14.00;9.20;;;;;;;7.16;100.00;99738.59;5113602;28;20223;-72
2024/01/31 06:56:00;;;;;;;14.00;8.77;;;;;;;7.19;100.00;99734.81;5113867;28;20229;-72
2024/01/31 06:58:26;;;;;;;12.23;8.73;;;;;;;7.16;100.00;99737.75;5113333;28;20286;-72
2024/01/31 07:00:55;;;;;;;11.90;8.63;;;;;;;7.14;100.00;99745.00;5113490;28;20211;-72
2024/01/31 07:03:22;;;;;;;12.43;8.57;;;;;;;7.13;100.00;99746.84;5113721;28;20226;-72
2024/01/31 07:05:48;;;;;;;10.03;8.67;;;;;;;7.06;100.00;99744.97;5113545;28;20203;-72
2024/01/31 07:08:14;;;;;;;10.53;8.63;;;;;;;7.04;100.00;99749.56;5113440;28;20206;-72
2024/01/31 07:10:41;;;;;;;10.10;8.40;;;;;;;7.06;100.00;99752.91;5113716;28;20199;-72
2024/01/31 07:13:07;;;;;;;14.27;9.17;;;;;;;7.10;100.00;99743.69;5112874;28;20302;-72
2024/01/31 07:15:34;;;;;;;10.47;8.33;;;;;;;7.10;100.00;99741.03;5112810;28;20209;-72
2024/01/31 07:18:00;;;;;;;13.93;8.80;;;;;;;7.09;100.00;99742.00;5112379;28;20566;-72
2024/01/31 07:20:26;;;;;;;11.70;9.00;;;;;;;7.13;100.00;99738.91;5113015;28;20210;-72
2024/01/31 07:22:53;;;;;;;11.40;9.03;;;;;;;7.14;100.00;99743.22;5113057;28;20233;-71
2024/01/31 07:25:19;;;;;;;13.70;9.13;;;;;;;7.18;100.00;99741.06;5112982;28;20207;-72
2024/01/31 07:27:46;;;;;;;12.13;8.67;;;;;;;7.15;100.00;99741.41;5113076;28;20285;-72
2024/01/31 07:30:12;;;;;;;11.67;8.90;;;;;;;7.16;100.00;99754.47;5113078;28;20291;-72
2024/01/31 07:32:39;;;;;;;15.83;9.53;;;;;;;7.22;100.00;99750.34;5112750;28;20226;-72
2024/01/31 07:35:08;;;;;;;10.43;8.53;;;;;;;7.24;100.00;99751.03;5113291;28;20240;-72
2024/01/31 07:37:36;;;;;;;11.93;8.63;;;;;;;7.20;100.00;99744.41;5112702;28;20210;-72
2024/01/31 07:40:05;;;;;;;11.80;8.67;;;;;;;7.26;100.00;99741.13;5113269;28;20251;-72
2024/01/31 07:42:32;;;;;;;13.70;10.13;;;;;;;7.28;100.00;99745.25;5113251;28;20238;-72
2024/01/31 07:44:58;;;;;;;13.73;9.50;;;;;;;7.30;100.00;99750.41;5113060;28;20203;-72
2024/01/31 07:47:24;;;;;;;11.37;9.50;;;;;;;7.29;100.00;99746.91;5112987;28;20560;-72
2024/01/31 07:50:00;;;;;;;13.20;10.00;;;;;;;7.29;100.00;99760.16;5113861;28;20203;-72
2024/01/31 07:52:27;;;;;;;16.33;10.80;;;;;;;7.33;100.00;99758.84;5113524;28;20223;-72
2024/01/31 07:54:53;;;;;;;14.70;9.73;;;;;;;7.32;100.00;99753.72;5113276;28;20237;-72
2024/01/31 07:57:20;;;;;;;14.23;10.60;;;;;;;7.34;100.00;99757.03;5113493;28;20203;-73
2024/01/31 07:59:46;;;;;;;14.80;9.80;;;;;;;7.36;100.00;99744.47;5113310;28;20210;-72
2024/01/31 08:02:13;;;;;;;13.87;10.87;;;;;;;7.33;100.00;99756.19;5113369;28;20229;-72
2024/01/31 08:04:39;;;;;;;13.60;9.90;;;;;;;7.34;100.00;99741.97;5112966;28;20557;-72
2024/01/31 08:07:05;;;;;;;15.60;10.77;;;;;;;7.31;100.00;99744.13;5113453;28;20212;-72
2024/01/31 08:09:32;;;;;;;17.07;10.90;;;;;;;7.30;100.00;99750.41;5113244;28;20203;-72
2024/01/31 08:11:58;;;;;;;16.37;10.77;;;;;;;7.28;100.00;99750.56;5112836;28;20207;-70
2024/01/31 08:14:25;;;;;;;14.23;10.17;;;;;;;7.31;100.00;99742.31;5113022;28;20249;-71
2024/01/31 08:16:51;;;;;;;18.87;11.03;;;;;;;7.37;100.00;99746.16;5113272;28;20581;-71
2024/01/31 08:19:18;;;;;;;14.53;10.40;;;;;;;7.34;100.00;99746.47;5113082;28;20202;-71
2024/01/31 08:21:44;;;;;;;15.37;10.43;;;;;;;7.32;100.00;99754.56;5113203;28;20210;-71
2024/01/31 08:24:10;;;;;;;15.57;10.43;;;;;;;7.36;100.00;99736.53;5112883;28;20271;-71
2024/01/31 08:26:37;;;;;;;17.77;10.27;;;;;;;7.34;100.00;99743.81;5113192;28;20194;-71
2024/01/31 08:29:03;;;;;;;14.67;10.87;;;;;;;7.40;100.00;99753.75;5113209;28;20290;-71
2024/01/31 08:31:29;;;;;;;15.23;10.53;;;;;;;7.40;100.00;99741.38;5113008;28;20215;-71
2024/01/31 08:33:56;;;;;;;14.13;10.97;;;;;;;7.48;100.00;99740.56;5112361;28;20754;-71
2024/01/31 08:36:22;;;;;;;16.83;10.53;;;;;;;7.52;100.00;99741.91;5112882;28;20203;-71
2024/01/31 08:38:48;;;;;;;13.63;10.73;;;;;;;7.54;100.00;99745.22;5113054;28;20199;-71
2024/01/31 08:41:15;;;;;;;14.20;10.57;;;;;;;7.59;100.00;99749.06;5112964;28;20203;-71
2024/01/31 08:43:41;;;;;;;14.60;10.43;;;;;;;7.56;100.00;99754.66;5112844;28;20225;-71
2024/01/31 08:46:08;;;;;;;15.83;10.70;;;;;;;7.56;100.00;99751.22;5113032;28;20204;-71
2024/01/31 08:48:35;;;;;;;16.63;10.57;;;;;;;7.64;100.00;99751.25;5112920;28;20239;-71
2024/01/31 08:51:03;;;;;;;16.17;10.30;;;;;;;7.69;100.00;99757.69;5116404;28;20285;-71
2024/01/31 08:53:29;;;;;;;15.47;11.00;;;;;;;7.82;100.00;99747.50;5116640;28;20550;-71
2024/01/31 08:55:55;;;;;;;14.57;11.23;;;;;;;7.86;100.00;99748.84;5116204;28;20209;-71
2024/01/31 08:58:22;;;;;;;14.60;10.97;;;;;;;7.94;100.00;99743.56;5115823;28;20679;-71
2024/01/31 09:00:48;;;;;;;14.67;13.10;;;;;;;8.13;100.00;99729.19;5115976;28;20207;-70
2024/01/31 09:03:15;;;;;;;16.90;13.23;;;;;;;8.14;100.00;99725.56;5116280;28;20330;-70
2024/01/31 09:05:41;;;;;;;20.83;13.07;;;;;;;8.15;100.00;99727.22;5116021;28;20207;-71
2024/01/31 09:08:08;;;;;;;16.30;12.40;;;;;;;8.25;100.00;99725.28;5116393;28;20209;-71
2024/01/31 09:10:34;;;;;;;15.27;11.87;;;;;;;8.38;100.00;99730.94;5116314;28;20199;-71
2024/01/31 09:13:00;;;;;;;15.53;13.70;;;;;;;8.41;100.00;99727.97;5116062;28;20230;-71
2024/01/31 09:15:27;;;;;;;17.07;13.83;;;;;;;8.52;100.00;99727.63;5116236;28;20207;-71
2024/01/31 09:17:53;;;;;;;15.77;14.03;;;;;;;8.45;100.00;99729.25;5116205;28;20211;-71
2024/01/31 09:20:20;;;;;;;16.10;14.27;;;;;;;8.41;100.00;99730.63;5115976;28;20257;-71
2024/01/31 09:22:46;;;;;;;16.20;13.60;;;;;;;8.43;100.00;99734.75;5115861;28;20313;-71
2024/01/31 09:25:14;;;;;;;18.87;13.87;;;;;;;8.54;100.00;99730.94;5115610;28;20211;-71
2024/01/31 09:27:41;;;;;;;16.97;14.70;;;;;;;8.51;100.00;99737.38;5115452;28;20638;-71
2024/01/31 09:30:08;;;;;;;15.80;14.07;;;;;;;8.51;100.00;99732.09;5116574;28;20231;-71
2024/01/31 09:32:35;;;;;;;18.60;14.00;;;;;;;8.48;100.00;99735.09;5115873;27;20272;-71
2024/01/31 09:35:01;;;;;;;17.53;13.93;;;;;;;8.50;100.00;99735.72;5115407;28;20227;-71
2024/01/31 09:37:28;;;;;;;18.83;14.63;;;;;;;8.57;100.00;99733.25;5115261;28;20210;-72
2024/01/31 09:39:56;;;;;;;16.67;14.80;;;;;;;8.46;100.00;99734.41;5115653;28;20199;-71
2024/01/31 09:42:22;;;;;;;17.83;15.03;;;;;;;8.50;100.00;99729.59;5115525;28;20318;-72
2024/01/31 09:44:51;;;;;;;17.43;14.37;;;;;;;8.53;100.00;99737.22;5115584;28;20203;-72
2024/01/31 09:47:19;;;;;;;21.03;15.17;;;;;;;8.58;100.00;99743.69;5115196;28;20203;-72
2024/01/31 09:49:45;;;;;;;16.67;14.87;;;;;;;8.64;100.00;99735.06;5115372;28;20252;-72
2024/01/31 09:52:14;;;;;;;18.17;14.17;;;;;;;8.90;100.00;99737.53;5115381;28;20310;-72
2024/01/31 09:54:43;;;;;;;16.40;14.70;;;;;;;9.00;100.00;99740.88;5115195;28;20317;-71
2024/01/31 09:57:10;;;;;;;18.03;14.37;;;;;;;8.72;100.00;99737.72;5114973;28;20211;-71
2024/01/31 09:59:38;;;;;;;20.10;14.43;;;;;;;8.65;100.00;99741.22;5115025;28;20205;-72
2024/01/31 10:02:06;;;;;;;17.37;14.67;;;;;;;8.71;100.00;99740.53;5115556;28;20203;-72
2024/01/31 10:04:32;;;;;;;16.40;14.17;;;;;;;8.75;100.00;99736.56;5114127;28;20306;-72
2024/01/31 10:06:59;;;;;;;18.17;14.10;;;;;;;8.80;100.00;99729.78;5114840;28;20574;-72
2024/01/31 10:09:26;;;;;;;17.47;14.20;;;;;;;8.76;100.00;99728.44;5115238;28;20571;-71
2024/01/31 10:11:52;;;;;;;16.67;14.10;;;;;;;8.74;100.00;99719.00;5114765;28;20651;-71
2024/01/31 10:14:19;;;;;;;21.00;14.10;;;;;;;8.78;100.00;99715.84;5115046;28;20226;-71
2024/01/31 10:16:45;;;;;;;15.90;13.57;;;;;;;8.84;100.00;99720.50;5114992;28;20203;-71
2024/01/31 10:19:12;;;;;;;19.67;13.67;;;;;;;8.92;100.00;99712.50;5114804;28;20207;-71
2024/01/31 10:21:39;;;;;;;17.27;13.00;;;;;;;9.03;100.00;99719.28;5114966;28;20631;-71
2024/01/31 10:24:05;;;;;;;18.83;14.00;;;;;;;8.97;100.00;99715.47;5114643;28;20567;-71
2024/01/31 10:26:33;;;;;;;16.70;13.60;;;;;;;9.10;100.00;99717.63;5114764;28;20275;-71
2024/01/31 10:29:01;;;;;;;18.67;13.10;;;;;;;9.07;100.00;99710.84;5114709;28;20204;-71
2024/01/31 10:31:29;;;;;;;14.10;12.60;;;;;;;9.35;100.00;99717.38;5114233;28;20298;-71
2024/01/31 10:33:58;;;;;;;15.37;13.77;;;;;;;9.11;100.00;99703.34;5114472;27;20227;-71
2024/01/31 10:36:26;;;;;;;16.90;13.70;;;;;;;9.25;100.00;99694.69;5114309;28;20299;-71
2024/01/31 10:38:52;;;;;;;15.83;13.10;;;;;;;9.30;100.00;99692.34;5114025;28;20239;-71
2024/01/31 10:41:21;;;;;;;15.20;13.07;;;;;;;9.10;100.00;99699.06;5113155;28;20210;-71
2024/01/31 10:43:49;;;;;;;16.00;12.77;;;;;;;9.28;100.00;99689.06;5114392;28;20220;-71
2024/01/31 10:46:16;;;;;;;17.67;13.10;;;;;;;9.41;100.00;99684.84;5114401;28;20210;-71
2024/01/31 10:48:42;;;;;;;15.13;13.13;;;;;;;9.57;100.00;99691.91;5114289;28;20203;-71
2024/01/31 10:51:11;;;;;;;16.23;13.23;;;;;;;9.48;100.00;99687.63;5114308;28;20199;-71
2024/01/31 10:53:38;;;;;;;15.10;13.13;;;;;;;9.43;100.00;99680.22;5113740;28;20596;-71
2024/01/31 10:56:06;;;;;;;15.90;13.10;;;;;;;9.50;100.00;99690.97;5114159;28;20203;-71
2024/01/31 10:58:34;;;;;;;17.70;13.27;;;;;;;9.59;100.00;99687.28;5114188;28;20217;-71
2024/01/31 11:01:04;;;;;;;16.07;13.00;;;;;;;9.69;100.00;99679.91;5113910;28;20544;-71
2024/01/31 11:03:32;;;;;;;14.67;13.17;;;;;;;9.71;100.00;99688.53;5113754;28;20249;-71
2024/01/31 11:05:58;;;;;;;16.67;12.83;;;;;;;9.64;100.00;99687.56;5113994;28;20232;-71
2024/01/31 11:08:26;;;;;;;15.13;12.73;;;;;;;9.37;100.00;99678.22;5113939;28;20210;-71
2024/01/31 11:10:54;;;;;;;13.47;12.10;;;;;;;9.47;100.00;99686.00;5114116;28;20253;-71
2024/01/31 11:13:20;;;;;;;14.10;12.67;;;;;;;9.80;100.00;99679.50;5112902;28;20307;-71
2024/01/31 11:15:47;;;;;;;14.33;12.87;;;;;;;10.04;100.00;99679.34;5114008;28;20220;-71
2024/01/31 11:18:14;;;;;;;15.63;13.40;;;;;;;10.38;100.00;99670.03;5113333;28;20545;-71